createdAt,value
2018-11-07T00:01:00.005Z,69.92
2018-11-07T00:03:27.663Z,70.18
2018-11-07T00:05:55.381Z,69.63
2018-11-07T00:08:23.367Z,70.17
2018-11-07T00:10:50.875Z,70.05
2018-11-07T00:13:18.637Z,69.55
2018-11-07T00:15:46.269Z,69.93
2018-11-07T00:18:14.037Z,69.50
2018-11-07T00:20:41.669Z,69.48
2018-11-07T00:23:09.283Z,69.38
2018-11-07T00:25:36.953Z,69.24
2018-11-07T00:28:04.727Z,69.66
2018-11-07T00:30:32.470Z,69.67
2018-11-07T00:33:00.165Z,69.08
2018-11-07T00:35:27.903Z,69.37
2018-11-07T00:37:55.684Z,69.23
2018-11-07T00:40:23.398Z,69.45
2018-11-07T00:42:51.038Z,69.42
2018-11-07T00:45:19.041Z,69.12
2018-11-07T00:47:46.735Z,69.25
2018-11-07T00:50:16.263Z,68.98
2018-11-07T00:52:44.341Z,69.30
2018-11-07T00:55:12.654Z,69.68
2018-11-07T00:57:40.601Z,69.76
2018-11-07T01:00:19.260Z,70.20
2018-11-07T01:02:53.859Z,70.86
2018-11-07T01:05:21.506Z,71.15
2018-11-07T01:07:49.236Z,70.65
2018-11-07T01:10:16.914Z,70.54
2018-11-07T01:12:44.619Z,71.18
2018-11-07T01:15:12.880Z,71.68
2018-11-07T01:17:40.562Z,71.31
2018-11-07T01:20:10.221Z,71.99
2018-11-07T01:22:38.562Z,71.92
2018-11-07T01:25:07.414Z,72.43
2018-11-07T01:27:35.420Z,72.37
2018-11-07T01:30:03.924Z,71.96
2018-11-07T01:32:31.583Z,72.10
2018-11-07T01:34:59.262Z,72.50
2018-11-07T01:37:26.983Z,72.56
2018-11-07T01:39:54.624Z,72.92
2018-11-07T01:42:22.284Z,72.95
2018-11-07T01:44:49.951Z,73.08
2018-11-07T01:47:17.609Z,72.88
2018-11-07T01:49:45.324Z,73.04
2018-11-07T01:52:13.012Z,72.71
2018-11-07T01:54:41.036Z,72.55
2018-11-07T01:57:08.673Z,72.99
2018-11-07T01:59:36.398Z,74.02
2018-11-07T02:02:04.047Z,74.10
2018-11-07T02:04:31.724Z,73.40
2018-11-07T02:06:59.334Z,73.43
2018-11-07T02:09:27.062Z,73.81
2018-11-07T02:11:54.684Z,74.41
2018-11-07T02:14:22.376Z,74.13
2018-11-07T02:16:50.108Z,74.26
2018-11-07T02:19:17.725Z,74.22
2018-11-07T02:21:45.325Z,74.30
2018-11-07T02:24:13.405Z,74.12
2018-11-07T02:26:41.068Z,74.70
2018-11-07T02:29:13.706Z,74.64
2018-11-07T02:31:43.442Z,74.71
2018-11-07T02:34:11.392Z,74.88
2018-11-07T02:36:39.048Z,74.76
2018-11-07T02:39:10.562Z,74.88
2018-11-07T02:41:38.590Z,74.14
2018-11-07T02:44:06.294Z,75.18
2018-11-07T02:46:33.918Z,75.20
2018-11-07T02:49:01.876Z,75.19
2018-11-07T02:51:29.528Z,75.51
2018-11-07T02:53:57.535Z,75.69
2018-11-07T02:56:25.225Z,75.39
2018-11-07T02:58:52.888Z,75.46
2018-11-07T03:01:20.717Z,75.17
2018-11-07T03:03:48.279Z,75.94
2018-11-07T03:06:15.972Z,75.79
2018-11-07T03:08:43.651Z,76.06
2018-11-07T03:11:11.306Z,75.45
2018-11-07T03:13:38.917Z,75.70
2018-11-07T03:16:06.590Z,75.67
2018-11-07T03:18:34.252Z,76.04
2018-11-07T03:21:01.894Z,76.62
2018-11-07T03:23:29.574Z,76.02
2018-11-07T03:25:57.553Z,76.60
2018-11-07T03:28:25.218Z,76.95
2018-11-07T03:30:52.865Z,77.40
2018-11-07T03:33:20.542Z,76.56
2018-11-07T03:35:48.277Z,76.36
2018-11-07T03:38:15.929Z,76.87
2018-11-07T03:40:43.687Z,76.34
2018-11-07T03:43:11.387Z,76.83
2018-11-07T03:45:44.862Z,77.49
2018-11-07T03:48:12.517Z,77.34
2018-11-07T03:50:40.216Z,77.03
2018-11-07T03:53:08.040Z,77.25
2018-11-07T03:55:35.740Z,77.13
2018-11-07T03:58:03.748Z,76.85
2018-11-07T04:00:31.476Z,77.77
2018-11-07T04:02:59.136Z,77.45
2018-11-07T04:05:26.852Z,77.72
2018-11-07T04:07:54.631Z,77.62
2018-11-07T04:10:22.304Z,78.07
2018-11-07T04:12:49.949Z,78.42
2018-11-07T04:15:17.721Z,77.79
2018-11-07T04:17:45.973Z,77.83
2018-11-07T04:20:13.672Z,77.55
2018-11-07T04:22:41.353Z,77.94
2018-11-07T04:25:09.485Z,77.83
2018-11-07T04:27:37.431Z,78.14
2018-11-07T04:30:07.845Z,78.01
2018-11-07T04:32:35.536Z,78.34
2018-11-07T04:35:03.427Z,77.78
2018-11-07T04:37:31.153Z,77.49
2018-11-07T04:39:58.838Z,77.87
2018-11-07T04:42:26.590Z,77.77
2018-11-07T04:44:54.260Z,77.41
2018-11-07T04:47:21.950Z,77.52
2018-11-07T04:49:49.653Z,77.51
2018-11-07T04:52:17.634Z,78.12
2018-11-07T04:54:46.637Z,78.21
2018-11-07T04:57:14.277Z,77.42
2018-11-07T04:59:42.042Z,78.09
2018-11-07T05:02:09.772Z,78.00
2018-11-07T05:04:37.445Z,77.76
2018-11-07T05:07:05.201Z,78.50
2018-11-07T05:09:32.929Z,78.45
2018-11-07T05:12:00.553Z,78.42
2018-11-07T05:14:28.311Z,77.90
2018-11-07T05:16:55.983Z,78.49
2018-11-07T05:19:23.705Z,77.80
2018-11-07T05:21:51.495Z,78.29
2018-11-07T05:24:19.248Z,78.40
2018-11-07T05:26:46.895Z,77.96
2018-11-07T05:29:14.571Z,77.85
2018-11-07T05:31:42.200Z,77.83
2018-11-07T05:34:09.892Z,78.17
2018-11-07T05:36:37.572Z,78.12
2018-11-07T05:39:07.242Z,78.30
2018-11-07T05:41:35.036Z,78.37
2018-11-07T05:44:02.829Z,78.65
2018-11-07T05:46:30.543Z,78.54
2018-11-07T05:48:58.280Z,78.01
2018-11-07T05:51:26.016Z,78.12
2018-11-07T05:53:53.719Z,78.14
2018-11-07T05:56:21.798Z,78.78
2018-11-07T05:58:49.530Z,78.71
2018-11-07T06:01:17.388Z,78.87
2018-11-07T06:03:45.250Z,78.92
2018-11-07T06:06:13.084Z,78.50
2018-11-07T06:08:40.858Z,78.80
2018-11-07T06:11:08.604Z,78.07
2018-11-07T06:13:36.376Z,78.91
2018-11-07T06:16:04.420Z,78.48
2018-11-07T06:18:32.158Z,78.46
2018-11-07T06:20:59.877Z,77.86
2018-11-07T06:23:27.639Z,77.80
2018-11-07T06:25:55.307Z,78.00
2018-11-07T06:28:22.974Z,78.10
2018-11-07T06:30:50.710Z,77.22
2018-11-07T06:33:18.396Z,76.86
2018-11-07T06:35:46.189Z,77.43
2018-11-07T06:38:13.904Z,77.55
2018-11-07T06:40:41.630Z,77.83
2018-11-07T06:43:09.449Z,76.58
2018-11-07T06:45:37.182Z,76.61
2018-11-07T06:48:04.921Z,76.69
2018-11-07T06:50:33.538Z,76.57
2018-11-07T06:53:01.302Z,76.60
2018-11-07T06:55:29.124Z,76.62
2018-11-07T06:57:56.767Z,76.18
2018-11-07T07:00:24.529Z,76.32
2018-11-07T07:02:52.255Z,75.59
2018-11-07T07:05:20.087Z,75.54
2018-11-07T07:07:47.843Z,75.06
2018-11-07T07:10:17.011Z,75.04
2018-11-07T07:12:44.733Z,74.65
2018-11-07T07:15:13.739Z,74.82
2018-11-07T07:17:41.567Z,74.09
2018-11-07T07:20:14.460Z,73.98
2018-11-07T07:22:42.810Z,74.61
2018-11-07T07:25:11.585Z,73.49
2018-11-07T07:27:39.754Z,73.27
2018-11-07T07:30:11.838Z,73.22
2018-11-07T07:32:40.201Z,72.96
2018-11-07T07:35:07.962Z,72.88
2018-11-07T07:37:35.713Z,72.43
2018-11-07T07:40:05.265Z,71.95
2018-11-07T07:42:33.009Z,71.11
2018-11-07T07:45:00.688Z,71.33
2018-11-07T07:47:28.435Z,70.73
2018-11-07T07:49:56.079Z,70.42
2018-11-07T07:52:23.797Z,69.98
2018-11-07T07:54:51.521Z,69.23
2018-11-07T07:57:19.240Z,67.94
2018-11-07T07:59:46.927Z,67.72
2018-11-07T08:02:14.699Z,67.32
2018-11-07T08:04:42.424Z,66.54
2018-11-07T08:07:10.125Z,66.93
2018-11-07T08:09:37.997Z,66.99
2018-11-07T08:12:05.915Z,66.55
2018-11-07T08:14:33.765Z,65.62
2018-11-07T08:17:01.481Z,65.53
2018-11-07T08:19:29.252Z,65.18
2018-11-07T08:21:57.014Z,64.41
2018-11-07T08:24:24.674Z,64.06
2018-11-07T08:26:52.392Z,63.41
2018-11-07T08:29:20.177Z,63.83
2018-11-07T08:31:47.871Z,64.02
2018-11-07T08:34:15.572Z,63.70
2018-11-07T08:36:43.291Z,64.40
2018-11-07T08:39:12.295Z,64.58
2018-11-07T08:41:40.410Z,64.66
2018-11-07T08:44:08.402Z,63.69
2018-11-07T08:46:36.065Z,63.97
2018-11-07T08:49:04.086Z,64.09
2018-11-07T08:51:32.042Z,63.57
2018-11-07T08:54:00.034Z,63.72
2018-11-07T08:56:27.874Z,63.12
2018-11-07T08:58:55.625Z,62.88
2018-11-07T09:01:23.592Z,62.84
2018-11-07T09:03:51.230Z,61.48
2018-11-07T09:06:18.924Z,62.03
2018-11-07T09:08:46.613Z,61.84
2018-11-07T09:11:14.326Z,61.86
2018-11-07T09:13:42.072Z,61.59
2018-11-07T09:16:09.782Z,61.55
2018-11-07T09:18:37.450Z,61.49
2018-11-07T09:21:05.227Z,60.27
2018-11-07T09:23:32.942Z,60.96
2018-11-07T09:26:00.641Z,60.95
2018-11-07T09:28:28.305Z,60.23
2018-11-07T09:30:55.997Z,60.25
2018-11-07T09:33:23.733Z,60.52
2018-11-07T09:35:51.396Z,60.27
2018-11-07T09:38:19.111Z,61.05
2018-11-07T09:40:46.844Z,61.06
2018-11-07T09:43:14.553Z,59.67
2018-11-07T09:45:42.305Z,59.72
2018-11-07T09:48:10.072Z,59.76
2018-11-07T09:50:37.784Z,59.78
2018-11-07T09:53:05.602Z,59.66
2018-11-07T09:55:33.378Z,59.11
2018-11-07T09:58:01.040Z,58.70
2018-11-07T10:00:29.015Z,57.96
2018-11-07T10:02:56.702Z,57.98
2018-11-07T10:05:24.498Z,57.22
2018-11-07T10:07:52.096Z,57.79
2018-11-07T10:10:20.774Z,57.49
2018-11-07T10:12:48.663Z,57.87
2018-11-07T10:15:16.619Z,57.17
2018-11-07T10:17:44.198Z,56.99
2018-11-07T10:20:19.821Z,56.54
2018-11-07T10:22:47.901Z,57.45
2018-11-07T10:25:15.768Z,57.39
2018-11-07T10:27:43.650Z,57.15
2018-11-07T10:30:13.514Z,56.43
2018-11-07T10:32:42.418Z,56.03
2018-11-07T10:35:10.432Z,56.52
2018-11-07T10:37:38.274Z,55.39
2018-11-07T10:40:14.932Z,55.17
2018-11-07T10:42:43.267Z,55.80
2018-11-07T10:45:11.526Z,55.12
2018-11-07T10:47:39.353Z,55.25
2018-11-07T10:50:09.112Z,54.17
2018-11-07T10:52:37.063Z,54.47
2018-11-07T10:55:05.862Z,51.77
2018-11-07T10:57:33.517Z,49.22
2018-11-07T11:00:01.204Z,46.78
2018-11-07T11:02:34.721Z,44.68
2018-11-07T11:05:02.435Z,43.82
2018-11-07T11:07:30.104Z,42.29
2018-11-07T11:09:57.807Z,41.92
2018-11-07T11:12:25.530Z,39.95
2018-11-07T11:14:53.236Z,39.45
2018-11-07T11:17:20.936Z,39.74
2018-11-07T11:19:48.853Z,36.99
2018-11-07T11:22:16.517Z,36.07
2018-11-07T11:24:44.194Z,36.14
2018-11-07T11:27:11.935Z,35.02
2018-11-07T11:29:39.591Z,33.14
2018-11-07T11:32:07.367Z,31.77
2018-11-07T11:34:35.306Z,29.21
2018-11-07T11:37:02.938Z,28.42
2018-11-07T11:39:30.607Z,28.76
2018-11-07T11:41:58.301Z,28.86
2018-11-07T11:44:25.921Z,26.24
2018-11-07T11:46:53.547Z,24.88
2018-11-07T11:49:21.403Z,24.91
2018-11-07T11:51:49.015Z,25.80
2018-11-07T11:54:16.730Z,26.66
2018-11-07T11:56:44.483Z,26.85
2018-11-07T11:59:12.457Z,27.40
2018-11-07T12:01:39.921Z,28.69
2018-11-07T12:04:07.642Z,28.45
2018-11-07T12:06:35.345Z,27.45
2018-11-07T12:09:04.229Z,25.63
2018-11-07T12:11:31.821Z,24.04
2018-11-07T12:13:59.507Z,23.77
2018-11-07T12:16:27.298Z,23.39
2018-11-07T12:18:56.067Z,22.40
2018-11-07T12:21:23.707Z,21.88
2018-11-07T12:23:51.382Z,23.59
2018-11-07T12:26:20.107Z,23.02
2018-11-07T12:28:47.853Z,22.45
2018-11-07T12:31:15.512Z,24.82
2018-11-07T12:33:43.130Z,25.44
2018-11-07T12:36:10.761Z,25.40
2018-11-07T12:38:38.491Z,25.96
2018-11-07T12:41:06.321Z,27.60
2018-11-07T12:43:34.091Z,26.42
2018-11-07T12:46:01.716Z,25.89
2018-11-07T12:48:29.374Z,27.50
2018-11-07T12:50:57.076Z,29.09
2018-11-07T12:53:24.775Z,28.46
2018-11-07T12:55:52.422Z,29.60
2018-11-07T12:58:20.287Z,28.95
2018-11-07T13:00:47.842Z,28.66
2018-11-07T13:03:15.559Z,27.99
2018-11-07T13:05:43.225Z,28.06
2018-11-07T13:08:10.994Z,28.36
2018-11-07T13:10:38.674Z,29.24
2018-11-07T13:13:06.548Z,28.58
2018-11-07T13:15:34.268Z,28.64
2018-11-07T13:18:02.022Z,29.31
2018-11-07T13:20:29.700Z,30.79
2018-11-07T13:22:57.601Z,31.75
2018-11-07T13:25:25.738Z,31.85
2018-11-07T13:27:53.516Z,32.57
2018-11-07T13:30:22.434Z,32.72
2018-11-07T13:32:50.042Z,33.79
2018-11-07T13:35:18.418Z,32.11
2018-11-07T13:37:47.040Z,32.86
2018-11-07T13:40:16.494Z,31.56
2018-11-07T13:42:44.226Z,31.50
2018-11-07T13:45:13.323Z,29.34
2018-11-07T13:47:42.174Z,28.44
2018-11-07T13:50:10.930Z,29.13
2018-11-07T13:52:38.998Z,28.63
2018-11-07T13:55:08.186Z,29.84
2018-11-07T13:57:35.956Z,31.00
2018-11-07T14:00:07.321Z,30.66
2018-11-07T14:02:35.077Z,32.83
2018-11-07T14:05:02.876Z,33.60
2018-11-07T14:07:31.192Z,33.17
2018-11-07T14:09:59.739Z,33.64
2018-11-07T14:12:27.510Z,34.19
2018-11-07T14:14:55.216Z,35.19
2018-11-07T14:17:22.949Z,37.95
2018-11-07T14:19:50.685Z,41.15
2018-11-07T14:22:18.395Z,42.58
2018-11-07T14:24:46.118Z,43.81
2018-11-07T14:27:13.857Z,43.69
2018-11-07T14:29:41.679Z,45.65
2018-11-07T14:32:09.417Z,46.15
2018-11-07T14:34:37.561Z,46.24
2018-11-07T14:37:05.381Z,48.02
2018-11-07T14:39:33.071Z,49.52
2018-11-07T14:42:00.807Z,50.04
2018-11-07T14:47:03.104Z,51.25
2018-11-07T14:49:30.932Z,51.91
2018-11-07T14:51:58.781Z,51.86
2018-11-07T14:54:26.636Z,52.29
2018-11-07T14:56:54.623Z,52.65
2018-11-07T14:59:22.349Z,53.16
2018-11-07T15:01:50.023Z,53.89
2018-11-07T15:04:17.753Z,54.44
2018-11-07T15:06:45.645Z,54.25
2018-11-07T15:09:13.471Z,54.78
2018-11-07T15:11:41.192Z,54.99
2018-11-07T15:14:08.813Z,54.99
2018-11-07T15:16:36.635Z,55.60
2018-11-07T15:19:04.689Z,55.98
2018-11-07T15:21:32.450Z,56.40
2018-11-07T15:24:00.421Z,56.93
2018-11-07T15:26:28.587Z,57.57
2018-11-07T15:28:56.291Z,58.34
2018-11-07T15:31:23.953Z,58.26
2018-11-07T15:33:51.681Z,59.56
2018-11-07T15:36:19.396Z,60.10
2018-11-07T15:38:47.080Z,60.22
2018-11-07T15:41:14.781Z,60.75
2018-11-07T15:43:42.446Z,61.65
2018-11-07T15:46:10.158Z,61.89
2018-11-07T15:48:37.953Z,62.59
2018-11-07T15:51:09.912Z,62.41
2018-11-07T15:53:44.488Z,63.04
2018-11-07T15:56:12.140Z,62.81
2018-11-07T15:58:39.837Z,62.84
2018-11-07T16:01:07.499Z,63.27
2018-11-07T16:03:41.132Z,63.86
2018-11-07T16:06:09.025Z,64.16
2018-11-07T16:08:36.632Z,64.61
2018-11-07T16:11:04.676Z,64.57
2018-11-07T16:13:32.403Z,64.97
2018-11-07T16:16:00.174Z,65.55
2018-11-07T16:18:27.845Z,65.19
2018-11-07T16:20:55.616Z,65.99
2018-11-07T16:23:23.425Z,66.04
2018-11-07T16:25:51.154Z,66.59
2018-11-07T16:28:18.914Z,66.49
2018-11-07T16:30:46.763Z,66.17
2018-11-07T16:33:14.522Z,66.85
2018-11-07T16:35:42.284Z,67.29
2018-11-07T16:38:10.050Z,67.01
2018-11-07T16:40:37.861Z,67.12
2018-11-07T16:43:05.685Z,67.56
2018-11-07T16:45:33.473Z,67.48
2018-11-07T16:48:01.414Z,68.33
2018-11-07T16:50:29.067Z,67.48
2018-11-07T16:52:56.811Z,67.61
2018-11-07T16:55:24.495Z,68.11
2018-11-07T16:57:52.279Z,69.03
2018-11-07T17:00:20.545Z,68.65
2018-11-07T17:02:49.081Z,69.18
2018-11-07T17:05:17.224Z,69.45
2018-11-07T17:07:45.218Z,69.47
2018-11-07T17:10:13.357Z,70.18
2018-11-07T17:12:41.097Z,70.49
2018-11-07T17:15:08.859Z,70.91
2018-11-07T17:17:37.104Z,71.06
2018-11-07T17:20:06.143Z,71.19
2018-11-07T17:22:34.049Z,71.32
2018-11-07T17:25:01.815Z,71.47
2018-11-07T17:27:29.587Z,71.67
2018-11-07T17:29:57.334Z,71.15
2018-11-07T17:32:25.069Z,71.17
2018-11-07T17:34:59.568Z,71.35
2018-11-07T17:37:27.313Z,71.90
2018-11-07T17:39:55.121Z,72.06
2018-11-07T17:42:22.992Z,71.96
2018-11-07T17:44:50.672Z,72.18
2018-11-07T17:47:18.400Z,71.81
2018-11-07T17:49:46.135Z,72.01
2018-11-07T17:52:13.898Z,72.10
2018-11-07T17:54:41.573Z,72.75
2018-11-07T17:57:09.360Z,72.79
2018-11-07T17:59:37.113Z,73.00
2018-11-07T18:02:05.417Z,72.63
2018-11-07T18:04:33.159Z,72.90
2018-11-07T18:07:00.954Z,73.26
2018-11-07T18:09:28.698Z,72.84
2018-11-07T18:11:56.501Z,73.05
2018-11-07T18:14:24.325Z,73.01
2018-11-07T18:16:52.081Z,73.71
2018-11-07T18:19:19.871Z,73.53
2018-11-07T18:21:47.602Z,74.15
2018-11-07T18:24:15.365Z,74.13
2018-11-07T18:26:43.042Z,73.35
2018-11-07T18:29:10.793Z,73.65
2018-11-07T18:31:38.488Z,73.75
2018-11-07T18:34:06.227Z,73.59
2018-11-07T18:36:33.943Z,73.72
2018-11-07T18:39:01.571Z,74.47
2018-11-07T18:41:29.268Z,75.23
2018-11-07T18:43:56.944Z,74.53
2018-11-07T18:46:24.626Z,74.67
2018-11-07T18:48:52.300Z,74.83
2018-11-07T18:51:20.052Z,75.54
2018-11-07T18:53:47.831Z,75.53
2018-11-07T18:56:15.742Z,75.05
2018-11-07T18:58:43.572Z,74.99
2018-11-07T19:01:11.781Z,74.50
2018-11-07T19:03:42.557Z,75.10
2018-11-07T19:06:10.234Z,75.44
2018-11-07T19:08:38.119Z,75.90
2018-11-07T19:11:05.879Z,75.55
2018-11-07T19:13:33.698Z,74.97
2018-11-07T19:16:01.416Z,74.71
2018-11-07T19:18:30.198Z,75.39
2018-11-07T19:20:57.822Z,75.67
2018-11-07T19:23:25.598Z,75.40
2018-11-07T19:25:53.271Z,75.29
2018-11-07T19:28:20.992Z,75.05
2018-11-07T19:30:48.708Z,75.48
2018-11-07T19:33:16.821Z,75.40
2018-11-07T19:35:44.662Z,74.71
2018-11-07T19:38:12.495Z,74.75
2018-11-07T19:40:40.200Z,75.12
2018-11-07T19:43:07.946Z,74.92
2018-11-07T19:45:35.802Z,74.71
2018-11-07T19:48:03.708Z,75.48
2018-11-07T19:50:31.386Z,75.07
2018-11-07T19:52:59.088Z,74.56
2018-11-07T19:55:26.771Z,74.94
2018-11-07T19:57:57.996Z,75.44
2018-11-07T20:00:25.759Z,75.74
2018-11-07T20:02:53.516Z,75.50
2018-11-07T20:05:21.250Z,75.95
2018-11-07T20:07:48.909Z,76.06
2018-11-07T20:10:18.127Z,75.99
2018-11-07T20:12:46.151Z,76.19
2018-11-07T20:15:14.910Z,75.98
2018-11-07T20:17:42.684Z,75.89
2018-11-07T20:20:10.730Z,76.61
2018-11-07T20:22:38.484Z,75.63
2018-11-07T20:25:07.728Z,76.37
2018-11-07T20:27:35.610Z,75.99
2018-11-07T20:30:04.673Z,76.63
2018-11-07T20:32:32.350Z,76.07
2018-11-07T20:35:00.188Z,75.96
2018-11-07T20:37:27.864Z,76.26
2018-11-07T20:39:55.544Z,76.96
2018-11-07T20:42:23.172Z,77.61
2018-11-07T20:44:50.821Z,77.12
2018-11-07T20:47:18.540Z,77.33
2018-11-07T20:49:46.134Z,78.13
2018-11-07T20:52:13.822Z,77.68
2018-11-07T20:54:41.577Z,77.31
2018-11-07T20:57:09.276Z,77.43
2018-11-07T20:59:36.954Z,77.18
2018-11-07T21:02:04.967Z,77.75
2018-11-07T21:04:32.643Z,76.70
2018-11-07T21:07:00.366Z,76.67
2018-11-07T21:09:27.995Z,76.53
2018-11-07T21:11:55.699Z,77.90
2018-11-07T21:14:23.404Z,78.12
2018-11-07T21:16:51.143Z,78.04
2018-11-07T21:19:18.749Z,77.84
2018-11-07T21:21:46.374Z,77.15
2018-11-07T21:24:14.141Z,76.90
2018-11-07T21:26:41.781Z,77.06
2018-11-07T21:29:09.505Z,77.59
2018-11-07T21:31:37.161Z,77.35
2018-11-07T21:34:04.828Z,77.54
2018-11-07T21:36:32.486Z,77.17
2018-11-07T21:39:00.340Z,77.93
2018-11-07T21:41:29.097Z,77.27
2018-11-07T21:43:56.855Z,77.18
2018-11-07T21:46:24.495Z,77.67
2018-11-07T21:48:52.190Z,77.91
2018-11-07T21:51:19.814Z,77.68
2018-11-07T21:53:47.505Z,77.81
2018-11-07T21:56:15.161Z,77.39
2018-11-07T21:58:42.793Z,77.81
2018-11-07T22:01:10.564Z,77.42
2018-11-07T22:03:38.274Z,77.49
2018-11-07T22:06:05.967Z,77.75
2018-11-07T22:08:33.609Z,76.86
2018-11-07T22:11:01.307Z,77.47
2018-11-07T22:13:29.135Z,77.06
2018-11-07T22:15:56.835Z,77.35
2018-11-07T22:18:24.467Z,77.17
2018-11-07T22:20:52.187Z,77.28
2018-11-07T22:23:19.846Z,77.81
2018-11-07T22:25:47.406Z,77.40
2018-11-07T22:28:15.052Z,78.12
2018-11-07T22:30:42.904Z,78.04
2018-11-07T22:33:10.566Z,77.68
2018-11-07T22:35:38.232Z,78.00
2018-11-07T22:38:05.897Z,78.27
2018-11-07T22:40:33.569Z,78.75
2018-11-07T22:43:01.254Z,79.37
2018-11-07T22:45:28.913Z,79.17
2018-11-07T22:47:56.596Z,78.88
2018-11-07T22:50:24.215Z,78.42
2018-11-07T22:52:51.879Z,77.82
2018-11-07T22:55:19.547Z,78.82
2018-11-07T22:57:47.155Z,79.32
2018-11-07T23:00:22.442Z,79.16
2018-11-07T23:02:53.525Z,79.72
2018-11-07T23:05:21.173Z,79.35
2018-11-07T23:07:49.280Z,79.01
2018-11-07T23:10:16.977Z,79.30
2018-11-07T23:12:44.616Z,79.21
2018-11-07T23:15:16.897Z,78.93
2018-11-07T23:17:44.721Z,78.91
2018-11-07T23:20:12.347Z,78.50
2018-11-07T23:22:40.052Z,78.38
2018-11-07T23:25:07.729Z,78.59
2018-11-07T23:27:35.448Z,78.32
2018-11-07T23:30:03.773Z,77.75
2018-11-07T23:32:31.397Z,78.72
2018-11-07T23:34:59.071Z,77.87
2018-11-07T23:37:26.695Z,77.89
2018-11-07T23:39:54.406Z,78.84
2018-11-07T23:42:22.057Z,78.36
2018-11-07T23:44:49.659Z,78.15
2018-11-07T23:47:17.330Z,78.70
2018-11-07T23:49:44.974Z,77.86
2018-11-07T23:52:17.277Z,78.30
2018-11-07T23:54:44.905Z,78.98
2018-11-07T23:57:12.648Z,79.45
2018-11-07T23:59:40.347Z,78.72
